PDT,Max TemperatureF,Mean TemperatureF,Min TemperatureF,Max Dew PointF,MeanDew PointF,Min DewpointF,Max Humidity, Mean Humidity, Min Humidity, Max Sea Level PressureIn, Mean Sea Level PressureIn, Min Sea Level PressureIn, Max VisibilityMiles, Mean VisibilityMiles, Min VisibilityMiles, Max Wind SpeedMPH, Mean Wind SpeedMPH, Max Gust SpeedMPH,PrecipitationIn, CloudCover, Events, WindDirDegrees
2013-7-1,109,96,83,70,64,50,61,42,22,29.76,29.70,29.63,10,10,10,14,6,18,0.00,0,,150
2013-7-2,108,95,82,72,60,45,46,33,20,29.89,29.76,29.67,10,9,2,26,8,37,0.00,1,,301
2013-7-3,113,99,85,56,48,44,24,18,12,29.71,29.64,29.54,10,10,9,16,7,29,0.00,0,,322
2013-7-4,109,95,81,71,59,48,52,34,15,29.71,29.61,29.53,10,10,10,18,9,24,0.00,0,,144
2013-7-5,104,90,75,72,64,52,79,49,18,29.71,29.65,29.57,10,10,10,16,5,20,0.00,0,,143
2013-7-6,107,90,73,63,57,50,64,41,17,29.70,29.63,29.55,10,10,10,13,4,16,0.00,0,,72
2013-7-7,113,94,75,64,51,35,54,33,12,29.69,29.62,29.55,10,10,10,12,5,20,0.00,0,,12
2013-7-8,114,101,87,50,42,35,24,16,7,29.77,29.71,29.66,10,10,10,16,8,24,0.00,0,,345
2013-7-9,106,96,85,77,70,37,70,42,13,29.97,29.85,29.76,10,10,10,16,8,24,0.00,0,,153
2013-7-10,97,91,85,76,72,59,74,60,45,29.90,29.83,29.74,10,10,7,18,7,28,0.00,1,,137
2013-7-11,92,86,80,76,69,60,74,58,41,29.93,29.83,29.76,10,10,9,10,3,12,0.01,2,Rain,322
2013-7-12,105,94,83,64,61,57,55,38,21,29.84,29.75,29.66,10,10,10,12,6,16,0.00,0,,321
2013-7-13,109,96,82,63,57,49,40,30,20,29.83,29.75,29.66,10,10,10,14,7,21,0.00,0,,340
2013-7-14,110,95,80,62,55,49,45,31,17,29.80,29.72,29.62,10,10,10,14,7,20,0.00,0,,75
2013-7-15,114,98,81,60,50,39,43,27,10,29.72,29.65,29.56,10,10,10,17,5,24,0.00,0,,335
2013-7-16,111,99,87,48,38,32,18,13,7,29.80,29.71,29.66,10,10,10,17,9,22,0.00,0,,359
2013-7-17,107,90,73,49,38,25,28,17,6,29.91,29.83,29.76,10,10,10,14,6,18,0.00,1,,329
2013-7-18,113,98,82,47,35,27,17,12,6,29.82,29.75,29.65,10,10,10,14,8,20,0.00,1,,331
2013-7-19,101,91,81,77,69,45,63,42,20,29.83,29.75,29.65,10,10,10,15,7,20,0.00,0,,136
2013-7-20,98,91,83,75,72,70,74,60,45,29.82,29.74,29.66,10,10,10,16,6,21,0.00,1,,134
2013-7-21,91,84,77,77,74,68,85,72,59,29.84,29.79,29.72,10,10,7,18,4,25,0.04,4,Rain-Thunderstorm,155
2013-7-22,101,88,74,71,66,59,84,57,29,29.91,29.83,29.75,10,10,10,12,5,16,0.00,1,Thunderstorm,47
2013-7-23,106,94,82,66,62,56,51,38,25,29.88,29.80,29.70,10,10,10,12,6,20,0.00,0,,318
2013-7-24,110,98,86,62,58,52,40,30,20,29.80,29.74,29.63,10,10,10,16,8,21,0.00,0,,321
2013-7-25,104,91,77,73,64,54,54,40,25,29.87,29.80,29.72,10,10,10,17,9,23,0.00,0,,148
2013-7-26,103,93,82,71,65,60,69,49,29,29.96,29.88,29.81,10,10,6,12,4,14,0.03,1,Rain,318
2013-7-27,109,96,82,63,58,54,48,33,17,29.86,29.77,29.64,10,10,10,12,4,17,0.00,0,,352
2013-7-28,111,99,86,55,46,35,31,20,9,29.71,29.66,29.59,10,10,10,18,9,24,0.00,0,,325
2013-7-29,106,87,68,53,43,31,47,28,8,29.85,29.77,29.70,10,10,10,15,7,20,0.00,0,,262
2013-7-30,106,93,79,59,54,50,42,29,16,29.95,29.88,29.81,10,10,10,14,6,18,0.00,0,,15
2013-7-31,108,94,79,58,53,42,42,29,16,29.92,29.84,29.74,10,10,10,15,7,21,0.00,0,,335